createdAt,value
2023-02-01T00:01:45.316Z,98368.03
2023-02-01T00:04:11.638Z,98369.38
2023-02-01T00:06:37.986Z,98375.25
2023-02-01T00:09:04.340Z,98368.31
2023-02-01T00:11:30.666Z,98374.97
2023-02-01T00:13:57.131Z,98365.94
2023-02-01T00:16:24.266Z,98357.13
2023-02-01T00:18:51.891Z,98353.38
2023-02-01T00:21:18.840Z,98360.03
2023-02-01T00:23:45.194Z,98363.28
2023-02-01T00:26:13.855Z,98362.19
2023-02-01T00:28:40.243Z,98359.25
2023-02-01T00:31:06.691Z,98364.06
2023-02-01T00:33:33.079Z,98363.25
2023-02-01T00:36:03.505Z,98360.34
2023-02-01T00:38:29.842Z,98366.72
2023-02-01T00:40:56.189Z,98355.81
2023-02-01T00:43:22.516Z,98365.41
2023-02-01T00:45:48.854Z,98367.53
2023-02-01T00:48:15.183Z,98359.00
2023-02-01T00:50:44.317Z,98353.41
2023-02-01T00:53:11.053Z,98352.06
2023-02-01T00:55:37.378Z,98360.59
2023-02-01T00:58:04.433Z,98344.06
2023-02-01T01:00:30.804Z,98341.66
2023-02-01T01:02:57.197Z,98339.53
2023-02-01T01:05:23.623Z,98335.53
2023-02-01T01:07:49.952Z,98338.47
2023-02-01T01:10:16.589Z,98343.53
2023-02-01T01:12:42.939Z,98339.00
2023-02-01T01:15:09.435Z,98331.22
2023-02-01T01:17:35.779Z,98326.41
2023-02-01T01:20:02.153Z,98333.91
2023-02-01T01:22:28.511Z,98337.38
2023-02-01T01:24:54.835Z,98327.22
2023-02-01T01:27:24.510Z,98326.41
2023-02-01T01:29:50.931Z,98325.91
2023-02-01T01:32:17.268Z,98329.59
2023-02-01T01:34:43.620Z,98320.00
2023-02-01T01:37:10.034Z,98332.81
2023-02-01T01:39:36.345Z,98326.16
2023-02-01T01:42:02.838Z,98325.88
2023-02-01T01:44:47.839Z,98312.00
2023-02-01T01:47:14.820Z,98318.41
2023-02-01T01:49:41.146Z,98321.09
2023-02-01T01:52:07.550Z,98319.72
2023-02-01T01:54:35.573Z,98317.34
2023-02-01T01:57:02.907Z,98321.59
2023-02-01T01:59:29.229Z,98302.66
2023-02-01T02:01:55.566Z,98309.06
2023-02-01T02:04:21.968Z,98316.00
2023-02-01T02:06:53.011Z,98312.81
2023-02-01T02:09:19.326Z,98308.28
2023-02-01T02:11:45.635Z,98304.81
2023-02-01T02:14:12.664Z,98298.69
2023-02-01T02:17:00.092Z,98303.22
2023-02-01T02:20:02.038Z,98292.28
2023-02-01T02:22:46.399Z,98303.22
2023-02-01T02:25:23.973Z,98297.09
2023-02-01T02:28:00.361Z,98296.00
2023-02-01T02:30:35.178Z,98282.41
2023-02-01T02:33:01.447Z,98277.06
2023-02-01T02:35:32.017Z,98275.72
2023-02-01T02:38:04.471Z,98276.00
2023-02-01T02:40:34.458Z,98269.59
2023-02-01T02:43:27.945Z,98253.88
2023-02-01T02:46:14.606Z,98254.41
2023-02-01T02:48:47.733Z,98258.66
2023-02-01T02:51:34.326Z,98259.72
2023-02-01T02:54:32.116Z,98254.94
2023-02-01T02:57:17.133Z,98248.53
2023-02-01T03:00:02.742Z,98245.31
2023-02-01T03:02:47.929Z,98235.72
2023-02-01T03:07:43.550Z,98222.41
2023-02-01T03:10:11.560Z,98219.47
2023-02-01T03:12:56.307Z,98217.63
2023-02-01T03:15:34.916Z,98206.41
2023-02-01T03:18:01.943Z,98204.56
2023-02-01T03:20:28.251Z,98200.56
2023-02-01T03:22:54.576Z,98208.56
2023-02-01T03:25:26.496Z,98213.09
2023-02-01T03:27:57.592Z,98198.44
2023-02-01T03:30:26.795Z,98202.16
2023-02-01T03:33:01.142Z,98199.47
2023-02-01T03:35:34.617Z,98197.31
2023-02-01T03:38:14.057Z,98190.91
2023-02-01T03:40:50.460Z,98184.81
2023-02-01T03:43:18.204Z,98184.03
2023-02-01T03:45:45.222Z,98182.72
2023-02-01T03:48:11.828Z,98175.75
2023-02-01T03:50:38.915Z,98155.28
2023-02-01T03:53:06.731Z,98150.47
2023-02-01T03:55:33.058Z,98150.75
2023-02-01T03:58:03.874Z,98151.75
2023-02-01T04:00:30.295Z,98162.41
2023-02-01T04:02:56.707Z,98173.63
2023-02-01T04:05:23.048Z,98157.88
2023-02-01T04:07:49.412Z,98170.16
2023-02-01T04:10:18.681Z,98155.50
2023-02-01T04:12:46.126Z,98153.63
2023-02-01T04:15:12.442Z,98145.13
2023-02-01T04:20:05.611Z,98133.91
2023-02-01T04:22:31.926Z,98130.72
2023-02-01T04:24:58.283Z,98136.06
2023-02-01T04:29:52.648Z,98128.56
2023-02-01T04:32:18.995Z,98125.91
2023-02-01T04:34:45.304Z,98132.31
2023-02-01T04:37:11.703Z,98123.00
2023-02-01T04:39:38.058Z,98118.72
2023-02-01T04:42:04.446Z,98121.66
2023-02-01T04:44:30.778Z,98117.94
2023-02-01T04:46:57.097Z,98117.41
2023-02-01T04:49:23.492Z,98113.16
2023-02-01T04:51:49.780Z,98114.19
2023-02-01T04:54:16.120Z,98107.00
2023-02-01T04:56:42.425Z,98113.38
2023-02-01T04:59:08.734Z,98112.59
2023-02-01T05:01:35.150Z,98107.53
2023-02-01T05:04:01.473Z,98110.22
2023-02-01T05:06:27.783Z,98092.59
2023-02-01T05:08:54.141Z,98102.22
2023-02-01T05:11:38.948Z,98097.13
2023-02-01T05:14:05.289Z,98096.63
2023-02-01T05:16:31.612Z,98106.47
2023-02-01T05:18:57.929Z,98098.72
2023-02-01T05:21:24.331Z,98103.00
2023-02-01T05:24:09.543Z,98094.75
2023-02-01T05:26:35.865Z,98103.53
2023-02-01T05:29:02.205Z,98100.59
2023-02-01T05:31:28.816Z,98089.94
2023-02-01T05:33:55.232Z,98086.50
2023-02-01T05:36:21.543Z,98085.16
2023-02-01T05:38:47.889Z,98077.44
2023-02-01T05:41:14.197Z,98075.84
2023-02-01T05:43:40.510Z,98086.47
2023-02-01T05:46:06.913Z,98077.97
2023-02-01T05:48:33.592Z,98075.59
2023-02-01T05:50:59.898Z,98083.03
2023-02-01T05:53:26.224Z,98072.66
2023-02-01T05:55:52.539Z,98086.22
2023-02-01T05:58:18.932Z,98071.31
2023-02-01T06:00:45.268Z,98071.56
2023-02-01T06:03:11.582Z,98067.56
2023-02-01T06:05:38.040Z,98063.88
2023-02-01T06:08:04.452Z,98064.91
2023-02-01T06:10:31.015Z,98058.00
2023-02-01T06:12:57.328Z,98056.91
2023-02-01T06:15:23.643Z,98062.53
2023-02-01T06:17:49.955Z,98050.81
2023-02-01T06:20:16.595Z,98060.38
2023-02-01T06:22:42.930Z,98062.22
2023-02-01T06:25:09.794Z,98052.94
2023-02-01T06:27:36.667Z,98054.00
2023-02-01T06:30:03.636Z,98055.84
2023-02-01T06:32:29.961Z,98061.16
2023-02-01T06:34:56.903Z,98057.72
2023-02-01T06:37:23.985Z,98058.50
2023-02-01T06:39:50.307Z,98065.69
2023-02-01T06:42:16.863Z,98059.34
2023-02-01T06:44:43.175Z,98066.50
2023-02-01T06:47:09.527Z,98071.81
2023-02-01T06:49:35.874Z,98071.81
2023-02-01T06:52:02.460Z,98072.09
2023-02-01T06:54:28.979Z,98076.63
2023-02-01T06:56:55.363Z,98080.06
2023-02-01T06:59:21.733Z,98080.34
2023-02-01T07:01:48.051Z,98089.41
2023-02-01T07:04:14.389Z,98091.22
2023-02-01T07:06:40.752Z,98101.88
2023-02-01T07:09:07.274Z,98104.00
2023-02-01T07:11:33.646Z,98114.66
2023-02-01T07:14:00.134Z,98105.06
2023-02-01T07:16:26.503Z,98107.75
2023-02-01T07:18:52.994Z,98096.00
2023-02-01T07:21:19.574Z,98095.50
2023-02-01T07:23:45.926Z,98108.25
2023-02-01T07:26:15.901Z,98111.72
2023-02-01T07:28:42.269Z,98115.16
2023-02-01T07:31:09.766Z,98121.03
2023-02-01T07:33:36.147Z,98120.22
2023-02-01T07:36:03.336Z,98133.25
2023-02-01T07:38:29.661Z,98124.47
2023-02-01T07:41:02.382Z,98125.28
2023-02-01T07:43:28.846Z,98135.91
2023-02-01T07:45:55.603Z,98123.94
2023-02-01T07:48:22.202Z,98127.69
2023-02-01T07:50:48.642Z,98133.31
2023-02-01T07:53:14.951Z,98133.88
2023-02-01T07:55:41.487Z,98139.75
2023-02-01T07:58:07.795Z,98137.63
2023-02-01T08:00:53.320Z,98141.66
2023-02-01T08:03:19.659Z,98146.19
2023-02-01T08:05:45.975Z,98145.63
2023-02-01T08:08:12.370Z,98145.13
2023-02-01T08:10:38.726Z,98151.25
2023-02-01T08:13:05.052Z,98155.28
2023-02-01T08:15:31.362Z,98157.94
2023-02-01T08:17:58.312Z,98158.94
2023-02-01T08:20:25.172Z,98154.97
2023-02-01T08:22:54.272Z,98161.09
2023-02-01T08:25:21.193Z,98161.09
2023-02-01T08:27:47.510Z,98158.16
2023-02-01T08:30:14.083Z,98166.94
2023-02-01T08:32:40.439Z,98157.34
2023-02-01T08:35:06.791Z,98166.41
2023-02-01T08:37:33.163Z,98169.31
2023-02-01T08:39:59.475Z,98160.25
2023-02-01T08:42:44.870Z,98157.56
2023-02-01T08:45:11.183Z,98170.09
2023-02-01T08:47:37.569Z,98159.97
2023-02-01T08:50:04.000Z,98166.63
2023-02-01T08:52:30.533Z,98164.47
2023-02-01T08:54:57.087Z,98169.56
2023-02-01T08:57:23.451Z,98172.22
2023-02-01T08:59:49.773Z,98171.44
2023-02-01T09:02:16.445Z,98159.44
2023-02-01T09:04:42.912Z,98166.38
2023-02-01T09:07:09.658Z,98169.03
2023-02-01T09:09:36.206Z,98173.84
2023-02-01T09:12:03.046Z,98170.38
2023-02-01T09:14:29.373Z,98169.59
2023-02-01T09:16:55.707Z,98180.25
2023-02-01T09:19:26.253Z,98182.41
2023-02-01T09:21:53.008Z,98167.22
2023-02-01T09:24:19.431Z,98195.97
2023-02-01T09:26:45.791Z,98180.25
2023-02-01T09:29:12.277Z,98201.56
2023-02-01T09:31:41.959Z,98185.06
2023-02-01T09:34:12.419Z,98178.94
2023-02-01T09:36:41.974Z,98192.25
2023-02-01T09:39:08.273Z,98183.69
2023-02-01T09:41:43.955Z,98186.63
2023-02-01T09:44:25.572Z,98179.44
2023-02-01T09:46:55.671Z,98179.72
2023-02-01T09:49:23.538Z,98177.84
2023-02-01T09:51:50.634Z,98173.03
2023-02-01T09:54:18.200Z,98182.91
2023-02-01T09:56:53.404Z,98178.88
2023-02-01T09:59:19.664Z,98179.44
2023-02-01T10:01:46.048Z,98182.34
2023-02-01T10:04:13.292Z,98181.03
2023-02-01T10:06:42.351Z,98176.22
2023-02-01T10:09:11.579Z,98178.88
2023-02-01T10:11:56.807Z,98179.66
2023-02-01T10:14:29.281Z,98189.28
2023-02-01T10:17:11.068Z,98189.28
2023-02-01T10:19:57.162Z,98184.78
2023-02-01T10:22:55.754Z,98186.88
2023-02-01T10:25:32.378Z,98181.56
2023-02-01T10:27:58.700Z,98191.41
2023-02-01T10:30:26.246Z,98181.81
2023-02-01T10:32:56.718Z,98174.34
2023-02-01T10:35:24.699Z,98177.59
2023-02-01T10:37:51.614Z,98164.25
2023-02-01T10:40:20.748Z,98168.59
2023-02-01T10:42:47.661Z,98166.22
2023-02-01T10:45:14.636Z,98158.44
2023-02-01T10:47:40.951Z,98157.13
2023-02-01T10:50:19.496Z,98144.31
2023-02-01T10:53:07.538Z,98139.25
2023-02-01T10:55:40.086Z,98128.53
2023-02-01T10:58:09.227Z,98141.34
2023-02-01T11:00:43.817Z,98137.00
2023-02-01T11:03:36.587Z,98130.59
2023-02-01T11:06:04.090Z,98136.47
2023-02-01T11:11:00.707Z,98131.53
2023-02-01T11:13:29.192Z,98136.63
2023-02-01T11:15:57.082Z,98133.84
2023-02-01T11:18:27.722Z,98131.41
2023-02-01T11:20:55.906Z,98112.06
2023-02-01T11:23:26.164Z,98111.47
2023-02-01T11:25:56.217Z,98116.72
2023-02-01T11:28:23.921Z,98101.16
2023-02-01T11:30:50.313Z,98101.09
2023-02-01T11:33:17.728Z,98094.06
2023-02-01T11:35:45.210Z,98092.97
2023-02-01T11:38:12.920Z,98081.19
2023-02-01T11:40:39.246Z,98072.06
2023-02-01T11:43:09.714Z,98080.28
2023-02-01T11:45:38.559Z,98060.22
2023-02-01T11:48:10.137Z,98066.31
2023-02-01T11:50:58.429Z,98047.88
2023-02-01T11:53:43.738Z,98041.44
2023-02-01T11:56:12.939Z,98029.41
2023-02-01T11:58:56.271Z,98021.94
2023-02-01T12:01:27.421Z,98021.13
2023-02-01T12:04:03.146Z,98005.31
2023-02-01T12:06:46.039Z,97999.81
2023-02-01T12:09:22.807Z,98001.72
2023-02-01T12:11:52.910Z,98009.25
2023-02-01T12:14:28.460Z,98006.56
2023-02-01T12:16:58.481Z,98015.13
2023-02-01T12:19:29.432Z,97997.19
2023-02-01T12:21:57.647Z,97992.63
2023-02-01T12:24:31.693Z,97993.44
2023-02-01T12:26:57.964Z,98004.13
2023-02-01T12:29:27.275Z,97995.59
2023-02-01T12:31:57.682Z,97991.84
2023-02-01T12:34:42.943Z,97988.09
2023-02-01T12:37:19.284Z,97993.19
2023-02-01T12:40:04.655Z,97994.78
2023-02-01T12:42:35.480Z,97983.03
2023-02-01T12:45:21.822Z,97969.44
2023-02-01T12:47:58.913Z,97963.28
2023-02-01T12:50:26.730Z,97972.41
2023-02-01T12:52:53.616Z,97953.91
2023-02-01T12:55:24.026Z,97959.03
2023-02-01T12:57:51.410Z,97943.22
2023-02-01T13:00:26.871Z,97937.88
2023-02-01T13:03:12.478Z,97936.28
2023-02-01T13:05:44.893Z,97925.59
2023-02-01T13:08:12.480Z,97933.13
2023-02-01T13:10:40.427Z,97938.97
2023-02-01T13:13:15.920Z,97920.31
2023-02-01T13:16:05.515Z,97924.34
2023-02-01T13:18:33.925Z,97918.84
2023-02-01T13:21:03.843Z,97908.09
2023-02-01T13:23:40.033Z,97914.75
2023-02-01T13:26:06.412Z,97912.06
2023-02-01T13:28:42.598Z,97916.19
2023-02-01T13:31:18.336Z,97926.50
2023-02-01T13:33:57.184Z,97935.75
2023-02-01T13:36:39.013Z,97927.97
2023-02-01T13:39:11.415Z,97948.78
2023-02-01T13:41:41.924Z,97937.38
2023-02-01T13:44:15.892Z,97949.59
2023-02-01T13:46:43.132Z,97931.13
2023-02-01T13:49:14.320Z,97919.66
2023-02-01T13:51:44.614Z,97922.31
2023-02-01T13:54:24.567Z,97912.69
2023-02-01T13:56:50.952Z,97910.03
2023-02-01T13:59:36.052Z,97902.59
2023-02-01T14:02:22.275Z,97898.31
2023-02-01T14:04:49.879Z,97907.59
2023-02-01T14:07:22.799Z,97884.06
2023-02-01T14:09:49.382Z,97874.25
2023-02-01T14:12:34.321Z,97870.81
2023-02-01T14:15:22.884Z,97877.16
2023-02-01T14:17:49.548Z,97875.94
2023-02-01T14:20:34.510Z,97879.97
2023-02-01T14:23:04.395Z,97896.00
2023-02-01T14:25:33.953Z,97896.28
2023-02-01T14:28:00.286Z,97910.06
2023-02-01T14:30:26.617Z,97914.38
2023-02-01T14:32:52.936Z,97929.78
2023-02-01T14:35:19.207Z,97936.03
2023-02-01T14:37:45.530Z,97922.25
2023-02-01T14:40:11.811Z,97952.97
2023-02-01T14:42:44.002Z,97957.94
2023-02-01T14:45:23.179Z,97963.47
2023-02-01T14:47:52.830Z,97988.28
2023-02-01T14:50:25.383Z,98010.72
2023-02-01T14:52:52.991Z,97998.97
2023-02-01T14:55:25.519Z,98003.31
2023-02-01T14:57:52.972Z,97996.22
2023-02-01T15:00:24.355Z,98001.09
2023-02-01T15:02:50.830Z,98008.88
2023-02-01T15:05:24.517Z,98013.97
2023-02-01T15:07:51.464Z,98023.28
2023-02-01T15:10:18.180Z,98009.44
2023-02-01T15:12:49.190Z,98011.59
2023-02-01T15:15:18.033Z,98009.72
2023-02-01T15:17:54.313Z,98006.75
2023-02-01T15:20:24.622Z,98002.53
2023-02-01T15:23:00.279Z,98004.13
2023-02-01T15:27:56.632Z,98003.38
2023-02-01T15:30:24.125Z,97991.75
2023-02-01T15:32:50.729Z,97995.94
2023-02-01T15:35:33.359Z,98006.78
2023-02-01T15:38:18.169Z,98010.66
2023-02-01T15:40:57.245Z,98034.78
2023-02-01T15:43:23.747Z,98059.59
2023-02-01T15:45:53.302Z,98053.41
2023-02-01T15:48:23.682Z,98057.38
2023-02-01T15:50:50.967Z,98063.28
2023-02-01T15:53:19.006Z,98065.38
2023-02-01T15:55:46.831Z,98058.75
2023-02-01T15:58:22.629Z,98058.03
2023-02-01T16:00:52.674Z,98055.44
2023-02-01T16:03:26.733Z,98054.53
2023-02-01T16:05:59.889Z,98054.47
2023-02-01T16:08:27.127Z,98054.19
2023-02-01T16:10:54.186Z,98064.53
2023-02-01T16:13:21.214Z,98061.06
2023-02-01T16:15:47.745Z,98058.31
2023-02-01T16:18:16.850Z,98052.16
2023-02-01T16:20:44.138Z,98052.88
2023-02-01T16:23:11.247Z,98050.50
2023-02-01T16:25:37.785Z,98066.00
2023-02-01T16:28:05.025Z,98059.22
2023-02-01T16:30:31.364Z,98074.00
2023-02-01T16:33:00.625Z,98093.31
2023-02-01T16:35:36.271Z,98097.88
2023-02-01T16:38:03.486Z,98087.00
2023-02-01T16:40:29.810Z,98093.75
2023-02-01T16:42:56.244Z,98095.41
2023-02-01T16:45:22.880Z,98104.72
2023-02-01T16:47:53.011Z,98100.41
2023-02-01T16:50:23.477Z,98109.75
2023-02-01T16:52:50.351Z,98113.16
2023-02-01T16:55:17.301Z,98114.50
2023-02-01T16:57:44.110Z,98120.63
2023-02-01T17:00:23.626Z,98130.00
2023-02-01T17:02:51.138Z,98117.16
2023-02-01T17:05:17.900Z,98137.19
2023-02-01T17:07:44.492Z,98112.06
2023-02-01T17:10:33.992Z,98111.78
2023-02-01T17:13:00.846Z,98132.63
2023-02-01T17:15:27.413Z,98116.78
2023-02-01T17:17:55.877Z,98113.81
2023-02-01T17:20:22.715Z,98124.53
2023-02-01T17:22:49.371Z,98120.56
2023-02-01T17:25:16.798Z,98120.56
2023-02-01T17:27:44.061Z,98128.28
2023-02-01T17:30:10.963Z,98120.25
2023-02-01T17:32:37.569Z,98127.50
2023-02-01T17:35:03.898Z,98125.31
2023-02-01T17:37:33.600Z,98122.13
2023-02-01T17:40:00.172Z,98122.94
2023-02-01T17:42:27.334Z,98118.28
2023-02-01T17:44:55.555Z,98116.41
2023-02-01T17:47:21.880Z,98124.22
2023-02-01T17:49:51.316Z,98122.75
2023-02-01T17:52:18.072Z,98128.16
2023-02-01T17:54:44.928Z,98133.38
2023-02-01T17:57:12.258Z,98128.59
2023-02-01T17:59:38.620Z,98137.84
2023-02-01T18:02:09.258Z,98131.03
2023-02-01T18:04:37.588Z,98139.88
2023-02-01T18:07:03.899Z,98133.13
2023-02-01T18:09:30.239Z,98132.31
2023-02-01T18:11:56.993Z,98141.19
2023-02-01T18:14:23.498Z,98139.56
2023-02-01T18:16:49.914Z,98146.34
2023-02-01T18:19:16.247Z,98138.28
2023-02-01T18:21:43.136Z,98153.28
2023-02-01T18:24:12.096Z,98159.63
2023-02-01T18:26:38.479Z,98156.56
2023-02-01T18:29:04.801Z,98162.59
2023-02-01T18:31:31.537Z,98168.75
2023-02-01T18:33:58.234Z,98167.94
2023-02-01T18:36:24.582Z,98165.84
2023-02-01T18:38:51.011Z,98165.53
2023-02-01T18:41:18.389Z,98165.13
2023-02-01T18:43:44.777Z,98168.09
2023-02-01T18:46:11.214Z,98164.09
2023-02-01T18:48:37.603Z,98174.03
2023-02-01T18:51:03.960Z,98165.19
2023-02-01T18:53:30.290Z,98174.91
2023-02-01T18:55:56.837Z,98183.47
2023-02-01T18:58:26.237Z,98181.88
2023-02-01T19:00:53.254Z,98179.50
2023-02-01T19:03:19.687Z,98189.44
2023-02-01T19:05:46.906Z,98185.22
2023-02-01T19:08:13.336Z,98182.03
2023-02-01T19:10:41.319Z,98185.28
2023-02-01T19:13:08.825Z,98182.66
2023-02-01T19:15:40.076Z,98200.13
2023-02-01T19:18:06.630Z,98198.06
2023-02-01T19:20:33.047Z,98196.59
2023-02-01T19:22:59.392Z,98209.53
2023-02-01T19:25:26.738Z,98206.78
2023-02-01T19:27:53.257Z,98208.13
2023-02-01T19:30:19.746Z,98193.38
2023-02-01T19:32:46.055Z,98203.81
2023-02-01T19:35:13.281Z,98204.28
2023-02-01T19:37:41.396Z,98205.81
2023-02-01T19:40:08.956Z,98211.47
2023-02-01T19:42:35.270Z,98203.94
2023-02-01T19:45:01.607Z,98204.22
2023-02-01T19:47:27.973Z,98199.44
2023-02-01T19:49:54.296Z,98210.66
2023-02-01T19:52:20.855Z,98198.38
2023-02-01T19:54:47.394Z,98198.88
2023-02-01T19:57:13.732Z,98202.03
2023-02-01T19:59:40.045Z,98187.66
2023-02-01T20:05:27.640Z,98212.31
2023-02-01T20:07:53.963Z,98211.22
2023-02-01T20:10:20.285Z,98213.69
2023-02-01T20:12:49.520Z,98217.44
2023-02-01T20:15:15.829Z,98222.56
2023-02-01T20:17:42.381Z,98227.66
2023-02-01T20:20:09.008Z,98235.75
2023-02-01T20:22:35.345Z,98238.69
2023-02-01T20:25:03.707Z,98225.25
2023-02-01T20:27:30.904Z,98241.16
2023-02-01T20:29:57.642Z,98242.50
2023-02-01T20:32:24.063Z,98234.25
2023-02-01T20:34:53.235Z,98240.97
2023-02-01T20:37:19.969Z,98246.09
2023-02-01T20:39:46.345Z,98238.38
2023-02-01T20:42:13.025Z,98243.16
2023-02-01T20:44:39.365Z,98239.16
2023-02-01T20:47:05.699Z,98243.19
2023-02-01T20:49:32.163Z,98240.09
2023-02-01T20:51:59.062Z,98248.69
2023-02-01T20:54:25.409Z,98241.75
2023-02-01T20:56:51.728Z,98258.06
2023-02-01T20:59:18.060Z,98251.44
2023-02-01T21:01:53.535Z,98256.25
2023-02-01T21:04:23.594Z,98254.94
2023-02-01T21:06:49.909Z,98254.16
2023-02-01T21:09:16.438Z,98249.84
2023-02-01T21:11:44.015Z,98252.81
2023-02-01T21:14:10.571Z,98248.84
2023-02-01T21:16:37.050Z,98247.91
2023-02-01T21:19:03.726Z,98245.31
2023-02-01T21:21:30.034Z,98253.63
2023-02-01T21:23:56.733Z,98254.91
2023-02-01T21:26:23.741Z,98262.09
2023-02-01T21:28:54.551Z,98265.50
2023-02-01T21:31:22.238Z,98260.66
2023-02-01T21:33:48.996Z,98266.31
2023-02-01T21:36:19.017Z,98261.19
2023-02-01T21:38:46.254Z,98272.41
2023-02-01T21:41:31.108Z,98272.88
2023-02-01T21:43:57.427Z,98264.53
2023-02-01T21:46:23.748Z,98268.50
2023-02-01T21:49:04.637Z,98282.78
2023-02-01T21:51:32.058Z,98289.41
2023-02-01T21:53:58.387Z,98277.78
2023-02-01T21:56:24.719Z,98281.72
2023-02-01T21:58:51.305Z,98276.53
2023-02-01T22:01:17.674Z,98287.69
2023-02-01T22:03:44.029Z,98284.41
2023-02-01T22:06:10.582Z,98283.75
2023-02-01T22:08:37.276Z,98288.81
2023-02-01T22:11:03.785Z,98274.00
2023-02-01T22:13:30.098Z,98295.31
2023-02-01T22:15:57.101Z,98300.09
2023-02-01T22:18:23.452Z,98300.81
2023-02-01T22:20:49.847Z,98308.13
2023-02-01T22:23:16.171Z,98300.53
2023-02-01T22:25:42.505Z,98305.75
2023-02-01T22:28:30.883Z,98309.47
2023-02-01T22:30:55.213Z,98305.00
2023-02-01T22:33:21.579Z,98317.06
2023-02-01T22:35:49.301Z,98327.00
2023-02-01T22:38:18.386Z,98309.63
2023-02-01T22:40:44.716Z,98325.97
2023-02-01T22:43:11.462Z,98320.88
2023-02-01T22:45:37.805Z,98327.34
2023-02-01T22:48:04.517Z,98335.66
2023-02-01T22:50:31.026Z,98338.88
2023-02-01T22:52:57.340Z,98345.31
2023-02-01T22:55:24.086Z,98329.53
2023-02-01T22:57:50.791Z,98326.06
2023-02-01T23:00:17.162Z,98345.09
2023-02-01T23:02:43.551Z,98340.03
2023-02-01T23:05:09.924Z,98338.97
2023-02-01T23:07:36.259Z,98344.34
2023-02-01T23:10:02.591Z,98340.06
2023-02-01T23:12:28.905Z,98354.84
2023-02-01T23:15:07.881Z,98358.69
2023-02-01T23:17:34.799Z,98351.97
2023-02-01T23:20:01.195Z,98360.00
2023-02-01T23:22:27.526Z,98340.47
2023-02-01T23:24:53.886Z,98353.59
2023-02-01T23:27:20.498Z,98356.28
2023-02-01T23:29:46.814Z,98352.81
2023-02-01T23:32:13.122Z,98350.41
2023-02-01T23:34:40.527Z,98357.41
2023-02-01T23:37:06.841Z,98358.22
2023-02-01T23:39:33.269Z,98370.81
2023-02-01T23:42:00.260Z,98376.72
2023-02-01T23:44:26.908Z,98372.44
2023-02-01T23:46:53.223Z,98365.50
2023-02-01T23:49:19.548Z,98361.25
2023-02-01T23:51:48.089Z,98366.06
2023-02-01T23:54:14.476Z,98369.03
2023-02-01T23:56:42.111Z,98371.97
2023-02-01T23:59:15.415Z,98374.41
